X  Schlie├čen METAR Luftfahrt Wetterdaten        EDDE Erfurt
Temperatur
6°C Temperatur
6°C Taupunkt
100% Feuchtigkeit



Wind
4 km/h
2 MPS
1 M/S
2 KTS



-1°
VRB
Aktuelle Wetterlage

Cloudy with Fog Wolkig , Nebel
Luftdruck 1013 (hPa) - 29.91 (inHg)
Sichtweite 0 (Meile) - 0 (Km)
Flughafen
Flughafen Code EDDE

Position : Erfurt
Entfernung: 25 (Km)

Metar:
METAR EDDE 050250Z AUTO VRB02KT 0450 R27/0750N FG VV003 06/06 Q1012

Zeit: 05.03.2024 03:50 CET